createdAt,value
2022-09-28T00:02:16.661Z,19.85
2022-09-28T00:04:43.818Z,20.13
2022-09-28T00:07:10.677Z,20.83
2022-09-28T00:09:38.454Z,20.25
2022-09-28T00:12:06.766Z,20.60
2022-09-28T00:14:34.123Z,20.40
2022-09-28T00:17:01.001Z,19.45
2022-09-28T00:19:28.047Z,20.20
2022-09-28T00:21:54.956Z,19.73
2022-09-28T00:24:26.677Z,20.27
2022-09-28T00:26:57.437Z,20.77
2022-09-28T00:29:27.077Z,21.15
2022-09-28T00:32:00.561Z,19.17
2022-09-28T00:34:33.437Z,19.25
2022-09-28T00:37:01.792Z,23.73
2022-09-28T00:39:31.630Z,20.55
2022-09-28T00:41:59.004Z,21.00
2022-09-28T00:44:25.837Z,21.05
2022-09-28T00:47:08.008Z,21.77
2022-09-28T00:49:40.562Z,20.63
2022-09-28T00:52:09.362Z,21.55
2022-09-28T00:54:36.605Z,19.95
2022-09-28T00:57:04.190Z,20.13
2022-09-28T00:59:32.553Z,20.35
2022-09-28T01:01:59.671Z,20.48
2022-09-28T01:04:29.844Z,20.50
2022-09-28T01:06:58.084Z,21.67
2022-09-28T01:09:25.922Z,20.42
2022-09-28T01:11:53.190Z,19.42
2022-09-28T01:14:20.768Z,21.90
2022-09-28T01:17:06.608Z,20.02
2022-09-28T01:20:00.665Z,21.98
2022-09-28T01:22:57.740Z,21.10
2022-09-28T01:25:39.462Z,21.40
2022-09-28T01:28:14.908Z,23.15
2022-09-28T01:31:04.690Z,22.33
2022-09-28T01:33:37.848Z,21.48
2022-09-28T01:36:10.353Z,21.83
2022-09-28T01:38:48.866Z,22.17
2022-09-28T01:41:17.933Z,21.20
2022-09-28T01:43:51.301Z,21.70
2022-09-28T01:46:21.688Z,22.17
2022-09-28T01:48:54.950Z,22.02
2022-09-28T01:51:31.882Z,21.23
2022-09-28T01:54:03.917Z,21.60
2022-09-28T01:56:38.720Z,20.45
2022-09-28T01:59:10.084Z,21.33
2022-09-28T02:01:40.802Z,20.77
2022-09-28T02:04:12.717Z,19.30
2022-09-28T02:07:12.158Z,19.75
2022-09-28T02:09:42.901Z,19.15
2022-09-28T02:12:15.120Z,20.20
2022-09-28T02:14:45.056Z,20.65
2022-09-28T02:17:12.640Z,18.75
2022-09-28T02:19:40.542Z,19.70
2022-09-28T02:22:23.247Z,19.40
2022-09-28T02:24:58.223Z,19.45
2022-09-28T02:27:41.546Z,20.25
2022-09-28T02:30:09.518Z,20.08
2022-09-28T02:32:40.374Z,19.00
2022-09-28T02:35:16.226Z,19.80
2022-09-28T02:37:44.807Z,20.35
2022-09-28T02:40:17.100Z,19.60
2022-09-28T02:42:54.461Z,21.02
2022-09-28T02:45:36.613Z,18.42
2022-09-28T02:48:42.749Z,19.85
2022-09-28T02:51:59.040Z,19.15
2022-09-28T02:55:03.162Z,19.85
2022-09-28T02:57:38.241Z,19.55
2022-09-28T03:00:09.131Z,19.27
2022-09-28T03:02:55.492Z,19.67
2022-09-28T03:05:30.335Z,17.85
2022-09-28T03:08:00.587Z,18.10
2022-09-28T03:10:44.147Z,17.75
2022-09-28T03:13:12.464Z,18.98
2022-09-28T03:15:40.539Z,18.52
2022-09-28T03:18:07.491Z,17.77
2022-09-28T03:20:35.264Z,17.05
2022-09-28T03:25:50.503Z,18.35
2022-09-28T03:28:17.491Z,16.23
2022-09-28T03:30:44.456Z,17.08
2022-09-28T03:33:11.731Z,16.13
2022-09-28T03:35:39.132Z,11.82
2022-09-28T03:38:05.988Z,11.93
2022-09-28T03:40:37.963Z,8.93
2022-09-28T03:43:04.874Z,6.32
2022-09-28T03:45:31.926Z,4.80
2022-09-28T03:48:00.463Z,4.18
2022-09-28T03:50:27.499Z,3.67
2022-09-28T03:52:54.385Z,3.50
2022-09-28T03:55:21.837Z,3.42
2022-09-28T03:57:57.635Z,3.40
2022-09-28T04:00:24.761Z,2.92
2022-09-28T04:02:52.009Z,3.20
2022-09-28T04:05:19.094Z,2.83
2022-09-28T04:07:46.252Z,2.80
2022-09-28T04:10:13.553Z,2.63
2022-09-28T04:12:40.372Z,2.03
2022-09-28T04:15:08.046Z,2.22
2022-09-28T04:17:39.840Z,1.92
2022-09-28T04:20:11.784Z,2.08
2022-09-28T04:22:55.533Z,1.98
2022-09-28T04:25:22.725Z,1.95
2022-09-28T04:28:08.051Z,2.13
2022-09-28T04:30:36.808Z,2.10
2022-09-28T04:33:04.006Z,1.90
2022-09-28T04:35:31.012Z,2.00
2022-09-28T04:37:58.110Z,1.88
2022-09-28T04:40:25.198Z,2.20
2022-09-28T04:42:56.826Z,4.28
2022-09-28T04:45:28.699Z,1.80
2022-09-28T04:48:01.592Z,1.30
2022-09-28T04:50:39.452Z,1.70
2022-09-28T04:53:12.031Z,1.70
2022-09-28T04:55:39.691Z,1.70
2022-09-28T04:58:06.772Z,1.50
2022-09-28T05:00:35.373Z,1.50
2022-09-28T05:03:34.613Z,2.10
2022-09-28T05:06:15.877Z,1.98
2022-09-28T05:08:47.960Z,1.70
2022-09-28T05:11:16.451Z,1.45
2022-09-28T05:13:45.576Z,1.30
2022-09-28T05:16:16.316Z,1.55
2022-09-28T05:19:03.256Z,1.67
2022-09-28T05:21:30.976Z,1.50
2022-09-28T05:23:58.783Z,1.42
2022-09-28T05:26:26.315Z,1.45
2022-09-28T05:28:53.456Z,1.58
2022-09-28T05:31:23.222Z,1.73
2022-09-28T05:34:10.727Z,1.80
2022-09-28T05:36:39.221Z,1.80
2022-09-28T05:39:06.869Z,1.70
2022-09-28T05:41:34.841Z,1.52
2022-09-28T05:44:01.934Z,1.88
2022-09-28T05:46:30.979Z,2.35
2022-09-28T05:49:00.826Z,2.17
2022-09-28T05:51:28.196Z,1.90
2022-09-28T05:53:56.117Z,2.35
2022-09-28T05:56:25.779Z,2.10
2022-09-28T05:58:53.109Z,1.80
2022-09-28T06:01:22.440Z,1.65
2022-09-28T06:03:49.702Z,1.88
2022-09-28T06:06:16.690Z,1.65
2022-09-28T06:08:46.410Z,1.98
2022-09-28T06:11:27.027Z,1.95
2022-09-28T06:13:55.716Z,2.67
2022-09-28T06:16:23.705Z,2.63
2022-09-28T06:18:51.906Z,2.53
2022-09-28T06:21:38.235Z,3.08
2022-09-28T06:24:06.555Z,3.50
2022-09-28T06:26:33.498Z,3.88
2022-09-28T06:29:03.668Z,4.15
2022-09-28T06:31:31.370Z,4.00
2022-09-28T06:34:01.407Z,3.42
2022-09-28T06:36:29.415Z,3.75
2022-09-28T06:38:56.487Z,3.22
2022-09-28T06:41:24.374Z,3.47
2022-09-28T06:43:52.414Z,3.35
2022-09-28T06:46:38.895Z,2.80
2022-09-28T06:49:35.089Z,3.40
2022-09-28T06:52:21.353Z,2.70
2022-09-28T06:55:03.060Z,2.53
2022-09-28T06:57:42.366Z,2.58
2022-09-28T07:00:10.652Z,2.35
2022-09-28T07:02:37.968Z,2.58
2022-09-28T07:05:34.858Z,2.30
2022-09-28T07:08:19.711Z,2.45
2022-09-28T07:11:05.602Z,2.28
2022-09-28T07:13:55.237Z,1.98
2022-09-28T07:16:27.412Z,2.38
2022-09-28T07:18:59.094Z,2.30
2022-09-28T07:21:30.123Z,1.92
2022-09-28T07:24:00.089Z,2.40
2022-09-28T07:26:46.038Z,3.40
2022-09-28T07:29:39.079Z,3.65
2022-09-28T07:32:35.124Z,4.43
2022-09-28T07:35:42.247Z,4.63
2022-09-28T07:38:10.841Z,5.03
2022-09-28T07:40:56.080Z,5.80
2022-09-28T07:43:23.342Z,5.90
2022-09-28T07:45:54.128Z,6.90
2022-09-28T07:48:22.216Z,7.22
2022-09-28T07:51:09.906Z,7.22
2022-09-28T07:53:42.598Z,7.70
2022-09-28T07:56:34.022Z,8.23
2022-09-28T07:59:18.415Z,7.57
2022-09-28T08:02:12.736Z,8.85
2022-09-28T08:04:41.113Z,7.95
2022-09-28T08:07:11.619Z,8.57
2022-09-28T08:09:39.664Z,9.18
2022-09-28T08:12:25.207Z,8.82
2022-09-28T08:15:01.241Z,7.65
2022-09-28T08:17:49.531Z,7.22
2022-09-28T08:20:38.095Z,6.85
2022-09-28T08:23:09.261Z,6.65
2022-09-28T08:25:38.352Z,6.97
2022-09-28T08:28:09.513Z,7.45
2022-09-28T08:30:45.265Z,6.18
2022-09-28T08:33:42.191Z,5.38
2022-09-28T08:36:28.425Z,5.15
2022-09-28T08:39:01.390Z,4.68
2022-09-28T08:41:45.467Z,4.35
2022-09-28T08:44:51.595Z,4.38
2022-09-28T08:48:32.494Z,5.63
2022-09-28T08:51:22.050Z,4.05
2022-09-28T08:54:12.884Z,4.30
2022-09-28T08:56:52.111Z,4.63
2022-09-28T08:59:35.510Z,3.65
2022-09-28T09:02:16.113Z,4.60
2022-09-28T09:04:43.923Z,3.90
2022-09-28T09:07:40.190Z,3.20
2022-09-28T09:10:16.108Z,3.08
2022-09-28T09:13:28.797Z,3.40
2022-09-28T09:16:12.811Z,3.10
2022-09-28T09:19:28.639Z,3.30
2022-09-28T09:22:29.581Z,3.60
2022-09-28T09:25:19.288Z,3.55
2022-09-28T09:27:59.963Z,4.28
2022-09-28T09:30:31.903Z,4.07
2022-09-28T09:33:17.163Z,3.95
2022-09-28T09:36:46.006Z,3.53
2022-09-28T09:40:26.287Z,4.30
2022-09-28T09:43:42.453Z,3.88
2022-09-28T09:46:37.129Z,3.97
2022-09-28T09:49:47.235Z,2.80
2022-09-28T09:52:37.043Z,2.83
2022-09-28T09:55:15.729Z,2.33
2022-09-28T09:58:23.859Z,2.95
2022-09-28T10:01:08.828Z,2.97
2022-09-28T10:03:56.292Z,3.30
2022-09-28T10:06:42.083Z,3.25
2022-09-28T10:09:38.560Z,3.25
2022-09-28T10:12:25.361Z,3.05
2022-09-28T10:14:53.183Z,3.70
2022-09-28T10:17:26.735Z,3.13
2022-09-28T10:20:16.338Z,3.30
2022-09-28T10:23:34.020Z,2.78
2022-09-28T10:26:04.524Z,2.80
2022-09-28T10:28:49.481Z,2.80
2022-09-28T10:31:50.389Z,2.60
2022-09-28T10:34:27.727Z,3.20
2022-09-28T10:37:00.728Z,2.03
2022-09-28T10:39:34.607Z,1.80
2022-09-28T10:42:04.335Z,1.65
2022-09-28T10:44:47.493Z,1.50
2022-09-28T10:47:26.466Z,2.17
2022-09-28T10:49:55.259Z,2.17
2022-09-28T10:52:39.822Z,2.10
2022-09-28T10:55:36.921Z,2.17
2022-09-28T10:58:27.975Z,1.95
2022-09-28T11:01:01.422Z,2.80
2022-09-28T11:03:30.488Z,4.55
2022-09-28T11:06:04.223Z,2.05
2022-09-28T11:08:38.212Z,2.10
2022-09-28T11:11:08.321Z,1.92
2022-09-28T11:13:42.424Z,1.95
2022-09-28T11:16:23.993Z,2.10
2022-09-28T11:18:51.265Z,2.05
2022-09-28T11:21:28.189Z,2.00
2022-09-28T11:24:07.615Z,1.90
2022-09-28T11:26:44.459Z,2.50
2022-09-28T11:29:42.056Z,1.80
2022-09-28T11:32:22.172Z,2.10
2022-09-28T11:35:22.059Z,1.90
2022-09-28T11:38:02.218Z,2.30
2022-09-28T11:41:21.244Z,1.80
2022-09-28T11:43:54.201Z,1.75
2022-09-28T11:46:44.833Z,1.98
2022-09-28T11:49:40.142Z,1.80
2022-09-28T11:52:14.222Z,1.50
2022-09-28T11:54:52.666Z,1.30
2022-09-28T11:57:22.603Z,1.10
2022-09-28T11:59:58.678Z,1.42
2022-09-28T12:02:39.856Z,1.48
2022-09-28T12:05:25.077Z,1.30
2022-09-28T12:08:04.252Z,1.40
2022-09-28T12:11:15.661Z,1.30
2022-09-28T12:14:27.561Z,1.42
2022-09-28T12:17:07.916Z,1.95
2022-09-28T12:19:44.294Z,1.60
2022-09-28T12:22:17.421Z,1.58
2022-09-28T12:24:46.478Z,1.80
2022-09-28T12:27:28.406Z,1.80
2022-09-28T12:30:15.441Z,2.22
2022-09-28T12:32:51.274Z,1.63
2022-09-28T12:35:40.095Z,1.50
2022-09-28T12:38:25.422Z,1.60
2022-09-28T12:41:05.567Z,1.50
2022-09-28T12:43:33.447Z,1.02
2022-09-28T12:46:21.742Z,1.10
2022-09-28T12:52:02.456Z,1.10
2022-09-28T12:54:39.082Z,1.00
2022-09-28T12:57:22.700Z,1.33
2022-09-28T13:00:08.175Z,1.10
2022-09-28T13:03:02.854Z,1.38
2022-09-28T13:05:47.566Z,1.23
2022-09-28T13:08:47.080Z,1.00
2022-09-28T13:11:41.285Z,1.05
2022-09-28T13:14:26.559Z,1.20
2022-09-28T13:17:05.263Z,1.30
2022-09-28T13:19:32.287Z,1.42
2022-09-28T13:22:39.977Z,1.58
2022-09-28T13:25:15.134Z,1.30
2022-09-28T13:27:46.737Z,1.48
2022-09-28T13:30:14.874Z,1.40
2022-09-28T13:32:42.544Z,1.38
2022-09-28T13:35:17.731Z,1.92
2022-09-28T13:37:45.485Z,1.40
2022-09-28T13:40:12.427Z,1.50
2022-09-28T13:42:50.821Z,1.60
2022-09-28T13:45:32.549Z,2.30
2022-09-28T13:48:14.556Z,1.80
2022-09-28T13:50:56.934Z,1.30
2022-09-28T13:53:54.798Z,2.05
2022-09-28T13:56:24.597Z,2.33
2022-09-28T13:59:09.043Z,1.92
2022-09-28T14:01:39.936Z,3.58
2022-09-28T14:04:14.528Z,2.50
2022-09-28T14:06:47.488Z,7.68
2022-09-28T14:09:16.593Z,9.85
2022-09-28T14:12:02.289Z,9.88
2022-09-28T14:14:47.217Z,8.25
2022-09-28T14:17:27.258Z,4.80
2022-09-28T14:20:11.224Z,6.20
2022-09-28T14:23:00.929Z,6.18
2022-09-28T14:25:31.089Z,1.88
2022-09-28T14:28:29.666Z,1.90
2022-09-28T14:30:58.341Z,2.10
2022-09-28T14:33:28.371Z,1.85
2022-09-28T14:36:04.030Z,1.73
2022-09-28T14:57:53.263Z,1.80
2022-09-28T15:00:22.626Z,1.83
2022-09-28T15:02:52.510Z,1.88
2022-09-28T15:05:36.049Z,2.50
2022-09-28T15:08:03.801Z,9.70
2022-09-28T15:10:33.432Z,23.45
2022-09-28T15:13:03.026Z,11.30
2022-09-28T15:15:36.863Z,4.78
2022-09-28T15:18:18.359Z,2.40
2022-09-28T15:20:47.167Z,2.25
2022-09-28T15:23:30.525Z,1.90
2022-09-28T15:25:57.565Z,8.27
2022-09-28T15:28:24.590Z,11.32
2022-09-28T15:30:51.981Z,14.52
2022-09-28T15:33:46.271Z,24.10
2022-09-28T15:36:20.618Z,26.77
2022-09-28T15:38:57.864Z,22.92
2022-09-28T15:41:25.364Z,7.10
2022-09-28T15:44:07.256Z,26.42
2022-09-28T15:46:36.625Z,26.05
2022-09-28T15:49:05.479Z,18.48
2022-09-28T15:51:33.144Z,8.82
2022-09-28T15:54:17.611Z,9.13
2022-09-28T15:56:52.460Z,4.78
2022-09-28T15:59:26.686Z,3.50
2022-09-28T16:02:15.067Z,3.50
2022-09-28T16:04:50.359Z,2.58
2022-09-28T16:07:28.227Z,3.20
2022-09-28T16:10:00.859Z,2.75
2022-09-28T16:12:37.285Z,25.75
2022-09-28T16:15:27.040Z,69.93
2022-09-28T16:17:55.931Z,22.45
2022-09-28T16:20:34.718Z,63.88
2022-09-28T16:23:33.150Z,66.32
2022-09-28T16:26:08.080Z,73.10
2022-09-28T16:28:35.128Z,34.03
2022-09-28T16:31:14.239Z,23.00
2022-09-28T16:33:45.727Z,62.92
2022-09-28T16:36:15.289Z,90.57
2022-09-28T16:38:45.771Z,102.72
2022-09-28T16:41:14.119Z,49.20
2022-09-28T16:43:40.961Z,132.38
2022-09-28T16:46:12.131Z,144.07
2022-09-28T16:48:48.811Z,48.58
2022-09-28T16:51:20.109Z,49.25
2022-09-28T16:54:05.708Z,149.98
2022-09-28T16:56:36.315Z,76.95
2022-09-28T16:59:03.869Z,160.15
2022-09-28T17:01:31.487Z,92.15
2022-09-28T17:03:58.853Z,78.57
2022-09-28T17:06:25.976Z,99.35
2022-09-28T17:08:54.353Z,87.65
2022-09-28T17:11:24.575Z,101.35
2022-09-28T17:13:52.373Z,124.25
2022-09-28T17:19:21.213Z,118.07
2022-09-28T17:21:48.851Z,77.45
2022-09-28T17:24:16.120Z,40.40
2022-09-28T17:26:44.376Z,62.97
2022-09-28T17:29:15.070Z,41.20
2022-09-28T17:31:43.661Z,105.75
2022-09-28T17:34:11.723Z,38.35
2022-09-28T17:36:41.102Z,74.72
2022-09-28T17:39:18.462Z,81.35
2022-09-28T17:41:47.123Z,10.20
2022-09-28T17:44:16.114Z,39.55
2022-09-28T17:46:49.795Z,242.80
2022-09-28T17:49:17.293Z,34.67
2022-09-28T17:51:44.260Z,20.98
2022-09-28T17:54:12.964Z,41.72
2022-09-28T17:56:40.099Z,35.13
2022-09-28T17:59:10.073Z,29.63
2022-09-28T18:01:38.963Z,42.08
2022-09-28T18:04:08.167Z,39.90
2022-09-28T18:06:37.196Z,28.10
2022-09-28T18:09:05.168Z,23.95
2022-09-28T18:11:33.807Z,23.80
2022-09-28T18:14:01.138Z,34.10
2022-09-28T18:16:28.971Z,43.80
2022-09-28T18:18:56.636Z,28.60
2022-09-28T18:21:23.534Z,25.42
2022-09-28T18:23:50.579Z,18.40
2022-09-28T18:26:19.686Z,38.33
2022-09-28T18:28:46.909Z,28.33
2022-09-28T18:31:15.313Z,21.40
2022-09-28T18:33:43.422Z,21.27
2022-09-28T18:36:10.398Z,85.93
2022-09-28T18:38:38.340Z,95.22
2022-09-28T18:41:15.700Z,39.10
2022-09-28T18:43:52.149Z,37.65
2022-09-28T18:46:19.359Z,15.00
2022-09-28T18:48:47.896Z,27.60
2022-09-28T18:51:14.932Z,13.32
2022-09-28T18:53:42.459Z,12.48
2022-09-28T18:56:13.090Z,13.75
2022-09-28T18:58:41.730Z,9.20
2022-09-28T19:01:32.650Z,10.93
2022-09-28T19:04:01.185Z,11.65
2022-09-28T19:06:28.946Z,11.73
2022-09-28T19:08:56.313Z,12.23
2022-09-28T19:11:24.453Z,12.80
2022-09-28T19:13:53.201Z,22.48
2022-09-28T19:16:22.439Z,22.38
2022-09-28T19:18:52.447Z,26.73
2022-09-28T19:21:19.954Z,10.35
2022-09-28T19:23:49.758Z,11.20
2022-09-28T19:26:25.500Z,12.77
2022-09-28T19:28:52.957Z,12.90
2022-09-28T19:31:22.171Z,18.05
2022-09-28T19:33:49.127Z,51.53
2022-09-28T19:36:18.926Z,111.40
2022-09-28T19:38:46.022Z,59.17
2022-09-28T19:41:39.395Z,36.50
2022-09-28T19:44:25.137Z,17.02
2022-09-28T19:46:53.416Z,23.67
2022-09-28T19:49:22.160Z,23.10
2022-09-28T19:52:11.416Z,25.90
2022-09-28T19:54:38.197Z,22.48
2022-09-28T19:57:07.994Z,18.42
2022-09-28T19:59:37.000Z,17.48
2022-09-28T20:02:06.154Z,10.27
2022-09-28T20:04:33.322Z,11.00
2022-09-28T20:07:00.360Z,14.25
2022-09-28T20:09:27.344Z,11.60
2022-09-28T20:11:54.354Z,16.42
2022-09-28T20:14:23.444Z,16.25
2022-09-28T20:16:53.124Z,21.15
2022-09-28T20:19:21.783Z,21.27
2022-09-28T20:21:49.009Z,17.25
2022-09-28T20:24:18.900Z,14.73
2022-09-28T20:26:46.135Z,11.48
2022-09-28T20:29:13.194Z,15.20
2022-09-28T20:31:40.780Z,8.32
2022-09-28T20:34:07.624Z,10.00
2022-09-28T20:36:34.838Z,9.90
2022-09-28T20:39:04.102Z,8.13
2022-09-28T20:41:34.806Z,7.70
2022-09-28T20:44:05.375Z,12.90
2022-09-28T20:46:35.854Z,12.32
2022-09-28T20:49:03.748Z,11.95
2022-09-28T20:51:31.285Z,13.75
2022-09-28T20:53:58.976Z,12.13
2022-09-28T20:56:31.440Z,7.20
2022-09-28T20:58:58.288Z,11.70
2022-09-28T21:01:27.265Z,9.40
2022-09-28T21:03:56.444Z,16.33
2022-09-28T21:06:25.364Z,11.32
2022-09-28T21:08:52.727Z,83.35
2022-09-28T21:11:21.676Z,70.30
2022-09-28T21:13:51.529Z,24.88
2022-09-28T21:16:18.766Z,22.60
2022-09-28T21:18:46.136Z,13.20
2022-09-28T21:21:14.506Z,15.35
2022-09-28T21:23:45.338Z,13.48
2022-09-28T21:26:15.777Z,30.50
2022-09-28T21:28:44.756Z,31.55
2022-09-28T21:31:12.294Z,31.48
2022-09-28T21:33:39.146Z,32.08
2022-09-28T21:36:07.551Z,22.15
2022-09-28T21:38:34.931Z,28.25
2022-09-28T21:41:02.626Z,12.88
2022-09-28T21:43:31.631Z,13.82
2022-09-28T21:45:58.818Z,20.95
2022-09-28T21:48:27.450Z,8.70
2022-09-28T21:50:59.507Z,18.27
2022-09-28T21:53:29.163Z,8.20
2022-09-28T21:55:57.172Z,8.50
2022-09-28T21:58:26.405Z,9.15
2022-09-28T22:01:01.227Z,8.55
2022-09-28T22:03:29.077Z,7.20
2022-09-28T22:05:55.889Z,6.75
2022-09-28T22:08:22.873Z,9.13
2022-09-28T22:11:24.371Z,14.23
2022-09-28T22:13:53.586Z,18.13
2022-09-28T22:16:23.060Z,13.93
2022-09-28T22:18:50.133Z,12.30
2022-09-28T22:21:29.906Z,12.30
2022-09-28T22:24:04.069Z,11.13
2022-09-28T22:26:32.680Z,6.25
2022-09-28T22:29:02.528Z,6.35
2022-09-28T22:31:31.478Z,5.43
2022-09-28T22:33:58.467Z,6.03
2022-09-28T22:36:25.969Z,4.93
2022-09-28T22:38:54.480Z,6.32
2022-09-28T22:41:21.338Z,4.00
2022-09-28T22:43:50.106Z,4.70
2022-09-28T22:46:19.408Z,5.07
2022-09-28T22:48:48.031Z,5.47
2022-09-28T22:51:16.001Z,4.40
2022-09-28T22:53:43.059Z,4.80
2022-09-28T22:56:13.505Z,6.00
2022-09-28T22:58:43.303Z,8.13
2022-09-28T23:01:15.677Z,7.45
2022-09-28T23:03:42.862Z,7.70
2022-09-28T23:06:11.530Z,4.53
2022-09-28T23:08:38.708Z,6.03
2022-09-28T23:11:06.160Z,3.95
2022-09-28T23:13:33.614Z,5.95
2022-09-28T23:16:04.525Z,7.10
2022-09-28T23:18:33.224Z,13.68
2022-09-28T23:21:03.096Z,6.47
2022-09-28T23:23:30.213Z,8.23
2022-09-28T23:25:57.034Z,6.93
2022-09-28T23:28:25.457Z,6.22
2022-09-28T23:30:52.977Z,8.05
2022-09-28T23:33:21.256Z,7.25
2022-09-28T23:35:48.393Z,7.53
2022-09-28T23:38:18.292Z,5.80
2022-09-28T23:40:46.559Z,3.90
2022-09-28T23:43:14.285Z,4.90
2022-09-28T23:45:42.920Z,4.57
2022-09-28T23:48:15.203Z,4.20
2022-09-28T23:50:43.539Z,7.45
2022-09-28T23:53:14.320Z,6.13
2022-09-28T23:55:43.955Z,4.00
2022-09-28T23:58:11.677Z,4.22
